Time;durP1;ratioP1;P1;durP2;ratioP2;P2;SDS_P1;SDS_P2;PMS_P1;PMS_P2;Temp;Humidity;BMP_temperature;BMP_pressure;BME280_temperature;BME280_humidity;BME280_pressure;Samples;Min_cycle;Max_cycle;Signal;HPM_P1;HPM_P2
2022/12/02 00:00:14;;;;;;;5.60;3.47;;;;;;;-19.68;59.79;99460.09;6200688;28;20512;-66
2022/12/02 00:03:21;;;;;;;5.63;4.70;;;;;;;-19.68;59.29;99470.13;6199858;28;20057;-66
2022/12/02 00:06:29;;;;;;;15.25;7.30;;;;;;;-19.72;59.28;99471.47;6200441;28;20042;-67
2022/12/02 00:09:35;;;;;;;8.73;5.18;;;;;;;-19.78;59.76;99472.53;6199549;28;20054;-66
2022/12/02 00:12:36;;;;;;;13.88;6.75;;;;;;;-19.80;59.82;99476.50;6199515;28;20517;-66
2022/12/02 00:15:44;;;;;;;9.10;3.25;;;;;;;-19.80;59.66;99476.50;6200278;28;20046;-66
2022/12/02 00:18:49;;;;;;;7.78;4.75;;;;;;;-19.90;59.56;99483.88;6199618;28;20061;-66
2022/12/02 00:21:51;;;;;;;9.15;5.70;;;;;;;-19.77;59.31;99484.31;6199301;28;20549;-66
2022/12/02 00:24:52;;;;;;;18.40;6.53;;;;;;;-19.90;59.21;99483.88;6199905;28;20625;-66
2022/12/02 00:27:56;;;;;;;23.10;8.18;;;;;;;-19.94;59.46;99488.59;6199914;28;20100;-66
2022/12/02 00:30:57;;;;;;;9.60;5.82;;;;;;;-19.94;59.18;99493.59;6199512;28;20049;-67
2022/12/02 00:33:59;;;;;;;12.88;5.20;;;;;;;-20.01;59.04;99506.31;6182191;28;20046;-67
2022/12/02 00:37:00;;;;;;;12.07;6.15;;;;;;;-20.12;59.48;99490.97;6199853;28;20054;-67
2022/12/02 00:40:02;;;;;;;14.73;6.10;;;;;;;-20.27;59.61;99502.91;6199765;28;20049;-66
2022/12/02 00:46:33;;;;;;;17.75;7.55;;;;;;;-20.31;59.91;99489.22;6199628;28;20053;-68
2022/12/02 00:49:35;;;;;;;16.98;7.90;;;;;;;-20.40;59.90;99513.38;6199094;28;20050;-67
2022/12/02 00:52:43;;;;;;;13.90;6.50;;;;;;;-20.45;59.42;99507.91;6199533;28;20501;-67
2022/12/02 00:55:47;;;;;;;9.05;5.40;;;;;;;-20.39;59.64;99506.00;6199236;28;20506;-69
2022/12/02 00:58:51;;;;;;;12.85;5.82;;;;;;;-20.47;59.94;99501.84;6199260;28;20053;-67
2022/12/02 01:01:52;;;;;;;7.65;3.78;;;;;;;-20.40;60.03;99510.88;6198724;28;20046;-67
2022/12/02 01:04:56;;;;;;;17.63;7.35;;;;;;;-20.49;60.23;99488.31;6199161;28;20057;-66
2022/12/02 01:08:02;;;;;;;20.08;8.05;;;;;;;-20.34;59.96;99523.09;6199120;28;20070;-66
2022/12/02 01:11:07;;;;;;;9.90;4.63;;;;;;;-20.31;59.70;99524.28;6182352;28;20054;-68
2022/12/02 01:14:08;;;;;;;12.98;6.45;;;;;;;-20.30;59.22;99525.16;6198193;28;20046;-66
2022/12/02 01:17:12;;;;;;;12.93;6.32;;;;;;;-20.31;59.62;99533.41;6198254;28;20054;-66
2022/12/02 01:20:13;;;;;;;14.18;6.75;;;;;;;-20.35;59.09;99522.19;6198747;28;20053;-67
2022/12/02 01:23:17;;;;;;;14.85;8.60;;;;;;;-20.40;59.21;99529.28;6198280;28;20061;-66
2022/12/02 01:26:21;;;;;;;4.20;3.80;;;;;;;-20.35;59.24;99536.31;6198749;28;20046;-66
2022/12/02 01:29:26;;;;;;;9.27;4.97;;;;;;;-20.39;59.32;99538.53;6197881;28;20115;-67
2022/12/02 01:32:30;;;;;;;13.10;6.78;;;;;;;-20.44;59.12;99547.22;6198598;28;20042;-68
2022/12/02 01:35:34;;;;;;;6.47;4.05;;;;;;;-20.43;58.82;99544.00;6197584;28;20050;-68
2022/12/02 01:38:56;;;;;;;12.45;5.55;;;;;;;-20.57;59.23;99539.28;6198347;28;20058;-67
2022/12/02 01:42:17;;;;;;;10.80;5.07;;;;;;;-20.49;58.64;99550.00;6198235;28;20042;-66
2022/12/02 01:45:37;;;;;;;8.15;4.78;;;;;;;-20.56;58.51;99556.06;6198170;28;20050;-68
2022/12/02 01:49:00;;;;;;;15.38;6.70;;;;;;;-20.58;58.21;99550.03;6183445;28;20046;-68
2022/12/02 01:52:25;;;;;;;13.77;6.40;;;;;;;-20.78;59.07;99562.19;6198100;28;20054;-67
2022/12/02 01:55:46;;;;;;;12.68;7.40;;;;;;;-20.74;59.05;99559.28;6198086;28;20050;-67
2022/12/02 01:59:05;;;;;;;3.20;2.95;;;;;;;-20.68;59.37;99569.88;6197850;28;20058;-67
2022/12/02 02:02:34;;;;;;;21.10;8.88;;;;;;;-20.56;58.41;99576.09;6197923;28;20509;-67
2022/12/02 02:05:55;;;;;;;12.38;5.95;;;;;;;-20.69;58.68;99573.09;6197899;28;20046;-67
2022/12/02 02:09:14;;;;;;;14.27;5.07;;;;;;;-20.74;58.72;99579.28;6197644;28;20042;-66
2022/12/02 02:12:16;;;;;;;10.93;7.15;;;;;;;-20.83;59.26;99585.88;6197045;28;20050;-67
2022/12/02 02:15:42;;;;;;;9.30;4.40;;;;;;;-21.00;59.20;99589.16;6180287;28;20055;-66
2022/12/02 02:18:43;;;;;;;45.05;7.35;;;;;;;-20.94;59.72;99595.69;6163632;28;20479;-67
2022/12/02 02:21:53;;;;;;;6.13;3.22;;;;;;;-20.92;59.50;99600.84;6149419;29;20130;-67
2022/12/02 02:24:54;;;;;;;9.85;5.18;;;;;;;-20.90;59.81;99607.78;6149639;28;20061;-67
2022/12/02 02:27:58;;;;;;;9.82;6.05;;;;;;;-20.92;59.85;99599.22;6149099;28;20507;-67
2022/12/02 02:30:59;;;;;;;14.43;5.65;;;;;;;-20.79;59.07;99601.34;6149188;28;20557;-68
2022/12/02 02:34:04;;;;;;;11.50;6.15;;;;;;;-20.95;59.41;99603.91;6148824;29;20054;-67
2022/12/02 02:37:05;;;;;;;23.65;7.03;;;;;;;-20.96;59.42;99602.16;6147907;28;20221;-68
2022/12/02 02:40:11;;;;;;;8.25;4.38;;;;;;;-20.96;59.12;99599.66;6148927;28;20458;-67
2022/12/02 02:43:19;;;;;;;4.50;2.60;;;;;;;-20.98;59.59;99621.13;6149190;29;20043;-67
2022/12/02 02:46:23;;;;;;;13.10;5.70;;;;;;;-21.09;59.67;99609.13;6149090;28;20070;-67
2022/12/02 02:49:25;;;;;;;13.68;5.68;;;;;;;-21.05;59.25;99621.25;6147523;29;20182;-67
2022/12/02 02:52:37;;;;;;;6.07;3.78;;;;;;;-20.93;59.95;99616.59;6148736;28;20499;-67
2022/12/02 02:55:39;;;;;;;16.90;7.50;;;;;;;-20.95;59.51;99623.03;6148996;29;20079;-66
2022/12/02 02:58:40;;;;;;;11.70;5.38;;;;;;;-20.95;59.10;99623.03;6148414;28;20573;-68
2022/12/02 03:01:45;;;;;;;13.50;6.07;;;;;;;-21.07;59.49;99627.69;6148671;29;20039;-66
2022/12/02 03:04:46;;;;;;;9.70;6.03;;;;;;;-21.04;59.73;99625.50;6148744;28;20042;-68
2022/12/02 03:07:53;;;;;;;5.03;3.97;;;;;;;-20.99;59.31;99628.47;6148897;29;20059;-67
2022/12/02 03:10:56;;;;;;;4.20;3.03;;;;;;;-20.89;59.04;99638.66;6148723;29;20406;-67
2022/12/02 03:14:01;;;;;;;11.32;5.38;;;;;;;-21.03;59.16;99639.78;6148430;28;20059;-67
2022/12/02 03:17:05;;;;;;;16.17;6.70;;;;;;;-21.10;59.41;99644.91;6161368;28;20058;-67
2022/12/02 03:20:07;;;;;;;15.80;8.13;;;;;;;-21.21;59.33;99642.91;6196546;28;20512;-66
2022/12/02 03:23:11;;;;;;;8.80;5.32;;;;;;;-21.14;59.51;99645.28;6196768;28;20046;-66
2022/12/02 03:26:15;;;;;;;5.45;4.63;;;;;;;-21.20;59.26;99649.69;6179187;28;20034;-68
2022/12/02 03:29:19;;;;;;;18.48;7.00;;;;;;;-21.21;59.74;99647.91;6197051;28;20046;-67
2022/12/02 03:32:28;;;;;;;11.70;4.55;;;;;;;-21.13;59.62;99657.09;6201311;28;20058;-67
2022/12/02 03:35:32;;;;;;;14.60;6.28;;;;;;;-21.19;59.32;99651.47;6199833;28;20091;-66
2022/12/02 03:38:36;;;;;;;9.00;5.75;;;;;;;-21.31;59.66;99646.97;6200151;28;20089;-67
2022/12/02 03:41:43;;;;;;;19.48;3.17;;;;;;;-21.14;59.89;99655.31;6200837;28;20046;-67
2022/12/02 03:44:45;;;;;;;8.65;5.53;;;;;;;-21.21;59.47;99667.91;6200210;28;20042;-68
2022/12/02 03:47:46;;;;;;;3.65;2.58;;;;;;;-21.14;59.80;99665.31;6199676;28;20201;-67
2022/12/02 03:50:52;;;;;;;14.70;6.93;;;;;;;-21.17;59.49;99660.91;6200780;28;20054;-67
2022/12/02 03:53:56;;;;;;;6.03;4.70;;;;;;;-21.22;59.47;99648.66;6200860;28;20042;-67
2022/12/02 03:56:58;;;;;;;9.50;5.65;;;;;;;-21.14;59.20;99672.81;6199776;28;20046;-66
2022/12/02 04:00:00;;;;;;;18.95;7.85;;;;;;;-21.15;59.04;99681.03;6200387;28;20054;-68
2022/12/02 04:03:01;;;;;;;7.35;3.92;;;;;;;-21.09;59.35;99686.69;6200456;28;20065;-68
2022/12/02 04:06:07;;;;;;;19.27;5.43;;;;;;;-21.10;58.81;99683.28;6200311;28;20042;-66
2022/12/02 04:09:11;;;;;;;5.85;4.03;;;;;;;-21.04;59.09;99688.03;6200329;28;20394;-66
2022/12/02 04:12:14;;;;;;;21.00;7.03;;;;;;;-20.91;58.98;99696.06;6198953;28;20544;-67
2022/12/02 04:15:18;;;;;;;21.25;7.97;;;;;;;-20.92;59.29;99691.78;6199188;28;20046;-67
2022/12/02 04:18:19;;;;;;;25.35;9.38;;;;;;;-20.80;59.05;99698.75;6199038;28;20054;-68
2022/12/02 04:21:25;;;;;;;44.42;15.55;;;;;;;-20.82;59.14;99707.75;6200055;28;20504;-68
2022/12/02 04:24:27;;;;;;;6.65;5.22;;;;;;;-20.68;58.49;99710.03;6199317;28;20046;-68
2022/12/02 04:27:34;;;;;;;12.48;5.07;;;;;;;-20.62;57.90;99700.66;6199859;28;20053;-67
2022/12/02 04:30:37;;;;;;;20.48;9.45;;;;;;;-20.50;58.63;99710.97;6200014;28;20054;-67
2022/12/02 04:33:42;;;;;;;13.27;8.27;;;;;;;-20.49;58.58;99703.63;6199288;28;20054;-66
2022/12/02 04:36:45;;;;;;;48.38;19.27;;;;;;;-20.48;57.86;99712.91;6199698;28;20061;-67
2022/12/02 04:39:47;;;;;;;13.23;8.18;;;;;;;-20.50;58.18;99715.97;6198241;28;20042;-67
2022/12/02 04:42:50;;;;;;;41.45;18.65;;;;;;;-20.53;57.97;99718.22;6199547;28;20520;-67
2022/12/02 04:45:54;;;;;;;25.02;9.48;;;;;;;-20.41;58.50;99715.28;6199534;28;20042;-67
2022/12/02 04:48:58;;;;;;;16.92;9.25;;;;;;;-20.31;58.03;99713.72;6199700;28;20502;-68
2022/12/02 04:52:05;;;;;;;16.83;9.25;;;;;;;-20.30;57.62;99715.47;6199672;28;20053;-67
2022/12/02 04:55:07;;;;;;;19.83;10.43;;;;;;;-20.35;57.60;99716.63;6199312;28;20043;-68
2022/12/02 04:58:09;;;;;;;27.73;11.27;;;;;;;-20.28;57.88;99729.03;6199211;28;20505;-67
2022/12/02 05:01:12;;;;;;;13.05;6.43;;;;;;;-20.15;57.67;99729.53;6199037;28;20054;-67
2022/12/02 05:04:14;;;;;;;29.10;11.73;;;;;;;-19.75;57.65;99741.00;6197956;28;20043;-67
2022/12/02 05:07:16;;;;;;;21.73;9.98;;;;;;;-19.38;57.39;99739.56;6198327;28;20414;-68
2022/12/02 05:10:19;;;;;;;22.60;9.15;;;;;;;-18.95;56.25;99738.66;6198966;28;20510;-68
2022/12/02 05:13:20;;;;;;;17.38;9.52;;;;;;;-18.67;55.76;99738.00;6198739;28;20059;-67
2022/12/02 05:16:25;;;;;;;23.27;9.77;;;;;;;-18.38;55.28;99737.34;6198399;28;20038;-66
2022/12/02 05:19:31;;;;;;;28.30;10.60;;;;;;;-18.14;55.09;99744.66;6198746;28;20049;-68
2022/12/02 05:22:35;;;;;;;16.92;7.10;;;;;;;-17.78;55.04;99748.75;6198710;28;20165;-67
2022/12/02 05:25:39;;;;;;;;;;;;;;;-17.61;54.17;99754.41;6181626;28;20120;-67
2022/12/02 05:28:40;;;;;;;23.90;8.68;;;;;;;-17.47;54.34;99747.34;6198390;28;19921;-69
2022/12/02 05:31:44;;;;;;;16.70;6.28;;;;;;;-17.22;53.76;99767.19;6198436;28;20046;-68
2022/12/02 05:34:50;;;;;;;32.25;10.23;;;;;;;-16.94;53.35;99765.50;6198354;28;20038;-67
2022/12/02 05:37:55;;;;;;;18.25;7.30;;;;;;;-16.71;53.31;99764.97;6198382;28;20413;-68
2022/12/02 05:40:58;;;;;;;22.25;10.57;;;;;;;-16.54;52.85;99758.88;6198130;28;20071;-68
2022/12/02 05:44:17;;;;;;;24.20;10.30;;;;;;;-16.42;52.64;99764.09;6197875;28;20046;-66
2022/12/02 05:47:18;;;;;;;16.92;9.80;;;;;;;-16.35;52.41;99757.19;6197520;28;20141;-68
2022/12/02 05:50:22;;;;;;;14.85;7.60;;;;;;;-16.24;52.27;99772.38;6181041;28;20046;-67
2022/12/02 05:53:26;;;;;;;25.70;9.95;;;;;;;-16.15;51.94;99760.56;6195765;28;20109;-68
2022/12/02 05:56:29;;;;;;;19.00;8.50;;;;;;;-15.92;51.52;99765.03;6197943;28;20038;-67
2022/12/02 05:59:31;;;;;;;36.75;11.88;;;;;;;-15.58;51.53;99761.13;6196986;28;20644;-68
2022/12/02 06:02:39;;;;;;;13.70;6.82;;;;;;;-15.36;50.75;99755.34;6180387;28;20050;-67
2022/12/02 06:05:43;;;;;;;20.17;9.68;;;;;;;-15.08;50.70;99754.34;6197882;28;20186;-68
2022/12/02 06:08:44;;;;;;;20.95;9.20;;;;;;;-14.71;50.40;99770.81;6196818;28;20540;-67
2022/12/02 06:11:49;;;;;;;34.60;11.52;;;;;;;-14.47;49.86;99769.31;6196924;28;20145;-67
2022/12/02 06:14:53;;;;;;;28.85;12.63;;;;;;;-14.16;50.12;99766.66;6197511;28;20069;-66
2022/12/02 06:17:54;;;;;;;8.50;5.15;;;;;;;-13.95;48.88;99761.50;6197049;28;20050;-67
2022/12/02 06:21:01;;;;;;;;;;;;;;;-13.95;49.52;99771.63;6197846;28;20050;-67
2022/12/02 06:24:09;;;;;;;49.13;25.92;;;;;;;-13.92;48.35;99761.78;6197140;28;19922;-67
2022/12/02 06:27:17;;;;;;;39.30;21.80;;;;;;;-13.98;48.33;99771.38;6196579;28;20116;-68
2022/12/02 06:30:18;;;;;;;27.23;15.25;;;;;;;-13.73;48.24;99769.97;6197652;28;20038;-67
2022/12/02 06:33:42;;;;;;;32.05;16.27;;;;;;;-13.59;47.66;99774.44;6197615;28;20054;-67
2022/12/02 06:37:21;;;;;;;20.15;12.93;;;;;;;-13.50;46.70;99763.25;6197584;28;20054;-68
2022/12/02 06:40:41;;;;;;;22.35;12.02;;;;;;;-13.37;46.15;99760.88;6197204;28;20438;-68
2022/12/02 06:47:32;;;;;;;13.80;6.57;;;;;;;-13.53;44.87;99758.84;6197088;28;20046;-67
2022/12/02 06:50:44;;;;;;;19.67;7.63;;;;;;;-13.66;44.90;99759.56;6196987;28;20421;-67
2022/12/02 06:53:47;;;;;;;11.63;7.43;;;;;;;-13.74;44.95;99768.22;6196182;28;20054;-68
2022/12/02 06:56:51;;;;;;;15.68;7.50;;;;;;;-13.70;45.83;99765.19;6195667;28;20049;-68
2022/12/02 06:59:52;;;;;;;21.52;8.43;;;;;;;-13.40;45.57;99758.13;6196552;28;20038;-67
2022/12/02 07:02:53;;;;;;;17.77;7.10;;;;;;;-13.08;44.73;99759.59;6195917;28;20054;-67
2022/12/02 07:06:09;;;;;;;;;;;;;;;-12.86;44.76;99762.06;6201996;28;20046;-67
2022/12/02 07:09:16;;;;;;;22.52;7.65;;;;;;;-12.73;44.39;99764.75;6201764;28;20343;-67
2022/12/02 07:12:41;;;;;;;29.52;9.52;;;;;;;-12.59;44.17;99755.59;6201741;28;20047;-68
2022/12/02 07:15:45;;;;;;;20.65;9.07;;;;;;;-12.26;44.11;99755.44;6201522;28;20437;-67
2022/12/02 07:18:48;;;;;;;18.08;7.65;;;;;;;-11.87;43.65;99750.53;6201378;28;20428;-68
2022/12/02 07:21:55;;;;;;;25.05;11.27;;;;;;;-11.51;42.93;99752.13;6201653;28;20050;-66
2022/12/02 07:25:04;;;;;;;31.02;11.80;;;;;;;-11.11;42.39;99750.59;6200696;28;20064;-67
2022/12/02 07:28:25;;;;;;;25.15;8.77;;;;;;;-10.72;41.46;99755.69;6201409;28;20042;-67
2022/12/02 07:31:31;;;;;;;20.73;7.97;;;;;;;-10.53;41.42;99753.53;6201368;28;20416;-66
2022/12/02 07:34:35;;;;;;;16.73;7.57;;;;;;;-10.34;41.58;99759.78;6201193;28;20441;-66
2022/12/02 07:37:36;;;;;;;17.63;6.30;;;;;;;-10.20;41.46;99748.78;6200514;28;20050;-68
2022/12/02 07:40:38;;;;;;;10.65;4.93;;;;;;;-10.13;41.61;99745.84;6200157;28;20054;-66
2022/12/02 07:43:40;;;;;;;21.48;6.97;;;;;;;-10.21;41.27;99753.00;6200615;28;20100;-66
2022/12/02 07:46:43;;;;;;;10.93;4.80;;;;;;;-10.42;40.71;99752.53;6200904;28;20042;-66
2022/12/02 07:50:05;;;;;;;18.25;6.80;;;;;;;-10.65;40.52;99750.19;6201011;28;20456;-66
2022/12/02 07:53:24;;;;;;;16.70;6.75;;;;;;;-10.93;40.47;99745.84;6201051;28;20058;-68
2022/12/02 07:56:44;;;;;;;21.70;6.38;;;;;;;-10.83;40.73;99749.00;6200705;28;20042;-67
2022/12/02 08:00:06;;;;;;;12.43;5.68;;;;;;;-10.49;40.40;99750.41;6200659;28;20055;-67
2022/12/02 08:03:10;;;;;;;13.95;6.47;;;;;;;-10.19;39.59;99745.44;6200323;28;20066;-67
2022/12/02 08:06:32;;;;;;;11.40;6.22;;;;;;;-10.17;39.04;99738.78;6200320;28;20129;-67
2022/12/02 08:09:53;;;;;;;13.85;5.70;;;;;;;-10.20;38.59;99758.97;6200379;28;20046;-67
2022/12/02 08:13:15;;;;;;;13.48;6.13;;;;;;;-10.32;39.49;99742.97;6200561;28;20573;-66
2022/12/02 08:16:34;;;;;;;13.65;5.95;;;;;;;-10.25;38.85;99745.94;6199454;28;20046;-67
2022/12/02 08:19:57;;;;;;;7.60;5.03;;;;;;;-10.59;39.10;99748.03;6200222;28;20053;-66
2022/12/02 08:23:17;;;;;;;20.38;8.45;;;;;;;-10.42;39.36;99742.34;6200182;28;20057;-68
2022/12/02 08:26:37;;;;;;;23.15;9.27;;;;;;;-9.81;38.26;99752.91;6200231;28;20046;-67
2022/12/02 08:30:00;;;;;;;18.33;8.15;;;;;;;-9.78;37.42;99753.09;6200126;28;20509;-67
2022/12/02 08:33:23;;;;;;;24.65;10.02;;;;;;;-9.38;37.94;99758.06;6200109;28;20050;-67
2022/12/02 08:36:43;;;;;;;22.67;8.30;;;;;;;-7.33;35.25;99748.22;6199869;28;20050;-67
2022/12/02 08:40:03;;;;;;;13.00;7.13;;;;;;;-6.23;34.57;99757.06;6199558;28;20050;-66
2022/12/02 08:43:26;;;;;;;18.65;8.63;;;;;;;-5.30;33.61;99757.88;6199734;28;20525;-67
2022/12/02 08:46:46;;;;;;;16.88;9.02;;;;;;;-5.35;33.33;99759.38;6199794;28;20457;-66
2022/12/02 08:50:07;;;;;;;19.00;7.70;;;;;;;-5.98;34.40;99759.09;6199534;28;20437;-68
2022/12/02 08:53:27;;;;;;;15.35;8.88;;;;;;;-6.95;34.74;99751.84;6199559;28;20046;-67
2022/12/02 08:56:29;;;;;;;13.43;8.10;;;;;;;-7.74;36.23;99753.69;6198136;28;20057;-67
2022/12/02 08:59:35;;;;;;;23.85;13.63;;;;;;;-8.29;37.25;99750.66;6182424;28;20364;-68
2022/12/02 09:02:36;;;;;;;18.25;9.30;;;;;;;-8.80;36.73;99755.53;6199104;28;20042;-67
2022/12/02 09:05:43;;;;;;;10.35;7.68;;;;;;;-9.31;37.16;99746.59;6199325;28;20046;-68
2022/12/02 09:08:47;;;;;;;8.93;5.53;;;;;;;-9.83;36.64;99751.94;6198894;28;20536;-67
2022/12/02 09:11:52;;;;;;;17.73;8.35;;;;;;;-10.42;37.53;99742.34;6198934;28;20053;-67
2022/12/02 09:14:56;;;;;;;20.40;9.48;;;;;;;-10.86;38.61;99747.13;6198767;28;20039;-67
2022/12/02 09:17:57;;;;;;;15.77;7.15;;;;;;;-11.29;38.60;99739.22;6198574;28;20061;-68
2022/12/02 09:21:02;;;;;;;14.05;7.13;;;;;;;-11.79;38.90;99745.16;6197658;28;20050;-68
2022/12/02 09:24:06;;;;;;;8.57;4.47;;;;;;;-12.48;39.62;99747.97;6198746;28;20124;-68
2022/12/02 09:27:11;;;;;;;15.07;5.20;;;;;;;-13.18;40.62;99738.66;6198399;28;20112;-67
2022/12/02 09:30:15;;;;;;;18.58;6.32;;;;;;;-13.74;41.39;99736.97;6198532;28;20089;-68
2022/12/02 09:33:16;;;;;;;15.27;6.68;;;;;;;-14.09;42.01;99723.38;6197851;28;21112;-69
2022/12/02 09:36:22;;;;;;;8.85;4.15;;;;;;;-13.54;41.91;99748.59;6198389;28;20058;-66
2022/12/02 09:39:25;;;;;;;21.30;8.77;;;;;;;-11.34;38.98;99736.34;6197696;28;20054;-68
2022/12/02 09:42:27;;;;;;;11.15;5.35;;;;;;;-9.69;36.40;99729.84;6197626;28;20047;-67
2022/12/02 09:45:29;;;;;;;6.53;4.28;;;;;;;-8.43;34.53;99729.53;6197581;28;20497;-67
2022/12/02 09:48:34;;;;;;;10.43;5.30;;;;;;;-7.66;32.84;99731.97;6197848;28;20050;-69
2022/12/02 09:51:58;;;;;;;9.52;4.63;;;;;;;-7.25;32.49;99723.88;6198224;28;20047;-68
2022/12/02 09:55:01;;;;;;;10.65;4.68;;;;;;;-6.88;32.21;99712.97;6197507;28;20129;-68
2022/12/02 09:58:21;;;;;;;9.65;4.68;;;;;;;-6.19;31.73;99720.53;6198016;28;20405;-68
2022/12/02 10:01:28;;;;;;;13.93;5.40;;;;;;;-6.48;30.94;99724.25;6196776;28;20053;-67
2022/12/02 10:04:32;;;;;;;11.45;4.07;;;;;;;-7.54;32.15;99726.63;6197098;28;20501;-68
2022/12/02 10:07:36;;;;;;;11.15;4.90;;;;;;;-9.05;33.57;99727.72;6197186;28;20545;-68
2022/12/02 10:10:41;;;;;;;7.28;3.90;;;;;;;-10.43;36.16;99734.63;6198017;28;20057;-68
2022/12/02 10:13:45;;;;;;;15.18;6.10;;;;;;;-11.41;37.28;99723.13;6197803;28;20046;-67
2022/12/02 10:17:16;;;;;;;7.18;3.63;;;;;;;-12.08;38.77;99724.53;6196265;28;20050;-68
2022/12/02 10:20:38;;;;;;;6.43;3.58;;;;;;;-12.76;39.37;99726.50;6197384;28;20456;-68
2022/12/02 10:24:02;;;;;;;12.38;4.90;;;;;;;-13.37;40.30;99730.50;6197991;28;20104;-70
2022/12/02 10:27:21;;;;;;;10.95;3.47;;;;;;;-13.62;40.52;99733.69;6196636;28;20398;-69
2022/12/02 10:30:26;;;;;;;9.88;4.43;;;;;;;-13.99;40.99;99732.56;6197440;28;20045;-68
2022/12/02 10:33:34;;;;;;;10.27;4.65;;;;;;;-14.26;41.18;99728.78;6197188;28;20042;-67
2022/12/02 10:36:43;;;;;;;9.18;4.15;;;;;;;-14.52;41.83;99730.19;6196887;28;20498;-68
2022/12/02 10:40:05;;;;;;;14.73;5.63;;;;;;;-14.78;42.55;99734.81;6195892;28;20054;-67
2022/12/02 10:43:11;;;;;;;8.70;4.82;;;;;;;-14.88;42.48;99729.78;6196897;28;20042;-67
2022/12/02 10:46:13;;;;;;;9.55;4.75;;;;;;;-15.02;42.48;99724.50;6196662;28;20563;-68
2022/12/02 10:49:33;;;;;;;12.73;6.28;;;;;;;-14.97;42.43;99728.28;6196966;28;20042;-68
2022/12/02 10:52:50;;;;;;;6.13;3.28;;;;;;;-15.41;42.84;99677.59;6196305;28;20061;-67
2022/12/02 10:55:51;;;;;;;11.43;3.85;;;;;;;-15.11;43.06;99727.91;6196767;28;20124;-67
2022/12/02 10:58:55;;;;;;;15.75;5.90;;;;;;;-15.13;43.00;99725.28;6196622;28;20038;-69
2022/12/02 11:02:00;;;;;;;13.25;4.75;;;;;;;-15.24;43.61;99728.56;6196616;28;20038;-68
2022/12/02 11:05:13;;;;;;;18.42;7.28;;;;;;;-15.41;44.64;99733.13;6195856;28;20047;-68
2022/12/02 11:08:33;;;;;;;15.35;6.22;;;;;;;-15.41;43.92;99728.06;6196583;28;20590;-68
2022/12/02 11:11:38;;;;;;;9.60;5.38;;;;;;;-15.38;44.04;99733.38;6195583;28;20054;-68
2022/12/02 11:14:39;;;;;;;18.25;6.15;;;;;;;-15.42;44.47;99744.00;6196323;28;20243;-68
2022/12/02 11:18:03;;;;;;;12.00;4.53;;;;;;;-15.65;44.58;99732.00;6196576;28;20058;-68
2022/12/02 11:21:13;;;;;;;10.27;3.47;;;;;;;-15.58;44.97;99743.47;6196564;28;20046;-67
2022/12/02 11:24:37;;;;;;;8.98;4.05;;;;;;;-15.49;44.55;99748.41;6195542;28;20101;-68
2022/12/02 11:28:22;;;;;;;15.27;4.80;;;;;;;-15.59;44.76;99744.25;6189900;28;20051;-68
2022/12/02 11:31:27;;;;;;;13.23;4.63;;;;;;;-15.76;45.36;99747.03;6196566;28;20049;-69
2022/12/02 11:34:52;;;;;;;17.67;4.38;;;;;;;-15.92;45.45;99745.72;6196409;28;20042;-67
2022/12/02 11:38:19;;;;;;;16.52;4.32;;;;;;;-15.95;45.75;99745.47;6196415;28;20489;-68
2022/12/02 11:41:25;;;;;;;10.07;4.25;;;;;;;-15.92;45.60;99759.97;6195317;28;20054;-69
2022/12/02 11:44:33;;;;;;;7.07;3.30;;;;;;;-16.08;46.00;99752.75;6196549;28;20074;-69
2022/12/02 11:47:38;;;;;;;7.35;3.47;;;;;;;-16.11;45.72;99749.97;6196296;28;20073;-68
2022/12/02 11:50:44;;;;;;;14.23;4.22;;;;;;;-16.09;46.01;99756.03;6196886;28;20142;-70
2022/12/02 11:53:50;;;;;;;7.55;2.97;;;;;;;-16.08;45.70;99747.69;6200680;28;20050;-67
2022/12/02 11:56:54;;;;;;;4.60;2.65;;;;;;;-16.17;45.80;99746.91;6199603;28;20500;-69
2022/12/02 11:59:57;;;;;;;5.13;2.63;;;;;;;-16.23;45.85;99746.41;6199257;28;20050;-68
2022/12/02 12:03:05;;;;;;;7.55;4.07;;;;;;;-16.22;46.01;99743.13;6200502;28;20045;-68
2022/12/02 12:06:06;;;;;;;11.07;3.20;;;;;;;-16.04;45.48;99749.75;6199857;28;20050;-68
2022/12/02 12:09:10;;;;;;;7.05;3.17;;;;;;;-16.02;45.56;99748.22;6199626;28;20057;-67
2022/12/02 12:12:18;;;;;;;5.50;2.85;;;;;;;-16.07;45.52;99744.44;6199139;28;20455;-67
2022/12/02 12:15:53;;;;;;;9.13;3.97;;;;;;;-15.97;45.66;99746.97;6200080;28;20046;-68
2022/12/02 12:19:16;;;;;;;12.30;3.92;;;;;;;-15.99;45.43;99748.50;6199952;28;20564;-68
2022/12/02 12:22:36;;;;;;;9.32;4.95;;;;;;;-15.96;45.51;99742.81;6200059;28;20050;-67
2022/12/02 12:26:03;;;;;;;11.95;4.05;;;;;;;-15.90;45.35;99754.31;6199809;28;20520;-67
2022/12/02 12:29:30;;;;;;;11.15;4.03;;;;;;;-15.92;45.77;99748.25;6200138;28;20059;-67
2022/12/02 12:32:53;;;;;;;9.18;4.70;;;;;;;-15.83;45.26;99759.88;6199764;28;20046;-67
2022/12/02 12:36:14;;;;;;;12.43;4.47;;;;;;;-15.83;45.33;99752.31;6199847;28;20426;-68
2022/12/02 12:39:34;;;;;;;16.08;5.15;;;;;;;-15.73;45.31;99754.84;6199952;28;20090;-68
2022/12/02 12:42:54;;;;;;;13.80;6.00;;;;;;;-15.78;45.20;99738.44;6199679;28;20050;-67
2022/12/02 12:46:16;;;;;;;7.28;3.53;;;;;;;-15.74;45.31;99740.44;6200137;28;20113;-67
2022/12/02 12:49:36;;;;;;;6.00;3.33;;;;;;;-15.53;44.87;99742.22;6199437;28;20440;-67
2022/12/02 12:52:43;;;;;;;10.02;3.83;;;;;;;-15.61;44.67;99720.50;6199458;28;20069;-68
2022/12/02 12:56:06;;;;;;;10.52;3.42;;;;;;;-15.53;44.39;99736.28;6199579;28;20054;-67
2022/12/02 12:59:26;;;;;;;12.43;5.30;;;;;;;-15.54;43.81;99745.47;6199359;28;20050;-67
2022/12/02 13:02:46;;;;;;;6.10;3.53;;;;;;;-15.73;44.43;99727.09;6199322;28;20523;-67
2022/12/02 13:06:06;;;;;;;8.73;4.00;;;;;;;-15.75;44.15;99728.59;6199530;28;20043;-68
2022/12/02 13:09:28;;;;;;;1.13;1.05;;;;;;;-15.62;43.99;99732.25;6199276;28;20054;-68
2022/12/02 13:12:49;;;;;;;5.47;2.80;;;;;;;-15.87;44.25;99731.88;6199128;28;20561;-67
2022/12/02 13:15:50;;;;;;;4.95;3.35;;;;;;;-15.85;44.45;99737.94;6197325;28;20050;-68
2022/12/02 13:19:13;;;;;;;11.45;3.25;;;;;;;-15.90;44.38;99729.09;6198668;28;20050;-67
2022/12/02 13:22:33;;;;;;;1.95;1.77;;;;;;;-15.88;44.25;99732.63;6198674;28;20046;-68
2022/12/02 13:25:53;;;;;;;2.63;1.45;;;;;;;-15.94;44.19;99728.69;6198664;28;20046;-68
2022/12/02 13:29:18;;;;;;;6.22;2.33;;;;;;;-15.92;44.38;99740.69;6198653;28;20484;-68
2022/12/02 13:32:42;;;;;;;7.85;2.50;;;;;;;-16.04;44.39;99739.66;6198588;28;20049;-68
2022/12/02 13:36:02;;;;;;;2.22;2.05;;;;;;;-16.22;44.80;99728.88;6198426;28;20136;-67
2022/12/02 13:39:25;;;;;;;7.10;2.95;;;;;;;-16.21;45.36;99737.34;6198222;28;20046;-67
2022/12/02 13:42:51;;;;;;;6.60;2.83;;;;;;;-16.34;45.35;99728.72;6198460;28;20058;-67
2022/12/02 13:46:11;;;;;;;2.83;2.22;;;;;;;-16.26;45.47;99741.09;6198139;28;20093;-67
2022/12/02 13:49:37;;;;;;;5.25;2.83;;;;;;;-16.38;45.79;99739.28;6197790;28;20058;-68
2022/12/02 13:52:40;;;;;;;7.20;2.65;;;;;;;-16.48;46.30;99736.72;6197425;28;20050;-68
2022/12/02 13:55:41;;;;;;;;;;;;;;;-16.67;46.70;99740.91;6198062;28;20424;-68
2022/12/02 13:58:46;;;;;;;2.10;1.95;;;;;;;-16.70;46.90;99733.09;6197053;28;19924;-68
2022/12/02 14:01:52;;;;;;;9.80;2.53;;;;;;;-16.75;46.96;99745.31;6197632;28;20057;-68
2022/12/02 14:04:55;;;;;;;4.75;3.20;;;;;;;-16.69;47.41;99742.44;6197279;28;20046;-67
2022/12/02 14:07:57;;;;;;;10.93;4.03;;;;;;;-16.42;47.15;99739.75;6197876;28;20046;-68
2022/12/02 14:10:58;;;;;;;5.15;2.08;;;;;;;-16.13;46.78;99729.69;6196880;28;20046;-68
2022/12/02 14:14:02;;;;;;;11.00;2.83;;;;;;;-15.71;46.50;99735.66;6196271;28;20502;-67
2022/12/02 14:17:04;;;;;;;5.20;3.00;;;;;;;-15.42;45.67;99741.47;6196737;28;20061;-67
2022/12/02 14:20:06;;;;;;;3.50;2.65;;;;;;;-15.20;45.70;99734.00;6196516;28;20422;-68
2022/12/02 14:23:10;;;;;;;8.10;3.95;;;;;;;-15.13;45.35;99735.38;6197473;28;20509;-68
2022/12/02 14:26:12;;;;;;;6.75;3.72;;;;;;;-14.99;45.45;99744.09;6197324;28;20051;-68
2022/12/02 14:29:13;;;;;;;5.65;2.75;;;;;;;-14.95;45.37;99764.66;6196557;28;20100;-67
2022/12/02 14:32:14;;;;;;;3.03;2.55;;;;;;;-14.87;45.51;99750.13;6197231;28;20037;-68
2022/12/02 14:35:34;;;;;;;2.25;1.77;;;;;;;-14.68;44.95;99767.66;6197238;28;20054;-66
2022/12/02 14:38:54;;;;;;;6.15;3.03;;;;;;;-14.54;45.38;99766.22;6197239;28;20144;-68
2022/12/02 14:42:15;;;;;;;3.60;1.83;;;;;;;-14.56;44.81;99777.84;6197256;28;20042;-67